sensor_id;sensor_type;location;lat;lon;timestamp;pressure;altitude;pressure_sealevel;temperature;humidity
84853;BME280;75109;47.440;19.310;2023-12-28T00:00:23;100842.94;;;5.69;74.25
84853;BME280;75109;47.440;19.310;2023-12-28T00:00:55;100838.25;;;5.70;74.12
84853;BME280;75109;47.440;19.310;2023-12-28T00:01:28;100844.06;;;5.68;74.17
84853;BME280;75109;47.440;19.310;2023-12-28T00:02:00;100839.66;;;5.67;74.33
84853;BME280;75109;47.440;19.310;2023-12-28T00:02:33;100836.38;;;5.65;74.08
84853;BME280;75109;47.440;19.310;2023-12-28T00:03:05;100839.16;;;5.65;74.21
84853;BME280;75109;47.440;19.310;2023-12-28T00:03:38;100838.31;;;5.65;74.15
84853;BME280;75109;47.440;19.310;2023-12-28T00:04:14;100831.09;;;5.64;73.87
84853;BME280;75109;47.440;19.310;2023-12-28T00:04:46;100834.72;;;5.64;73.90
84853;BME280;75109;47.440;19.310;2023-12-28T00:05:19;100830.31;;;5.63;73.91
84853;BME280;75109;47.440;19.310;2023-12-28T00:05:51;100837.47;;;5.64;74.09
84853;BME280;75109;47.440;19.310;2023-12-28T00:06:23;100837.78;;;5.63;74.08
84853;BME280;75109;47.440;19.310;2023-12-28T00:06:55;100846.38;;;5.61;74.26
84853;BME280;75109;47.440;19.310;2023-12-28T00:07:28;100835.31;;;5.61;74.17
84853;BME280;75109;47.440;19.310;2023-12-28T00:08:00;100835.00;;;5.63;74.20
84853;BME280;75109;47.440;19.310;2023-12-28T00:08:32;100843.31;;;5.63;74.15
84853;BME280;75109;47.440;19.310;2023-12-28T00:09:04;100841.06;;;5.65;74.13
84853;BME280;75109;47.440;19.310;2023-12-28T00:09:38;100838.84;;;5.67;73.88
84853;BME280;75109;47.440;19.310;2023-12-28T00:10:11;100838.00;;;5.66;73.85
84853;BME280;75109;47.440;19.310;2023-12-28T00:10:43;100838.00;;;5.66;74.04
84853;BME280;75109;47.440;19.310;2023-12-28T00:11:15;100839.16;;;5.65;73.87
84853;BME280;75109;47.440;19.310;2023-12-28T00:11:48;100832.47;;;5.66;74.35
84853;BME280;75109;47.440;19.310;2023-12-28T00:12:20;100833.00;;;5.68;73.81
84853;BME280;75109;47.440;19.310;2023-12-28T00:12:54;100830.00;;;5.65;74.13
84853;BME280;75109;47.440;19.310;2023-12-28T00:13:27;100831.63;;;5.66;74.22
84853;BME280;75109;47.440;19.310;2023-12-28T00:13:59;100841.06;;;5.65;74.21
84853;BME280;75109;47.440;19.310;2023-12-28T00:14:31;100838.59;;;5.63;74.34
84853;BME280;75109;47.440;19.310;2023-12-28T00:15:04;100842.47;;;5.62;74.15
84853;BME280;75109;47.440;19.310;2023-12-28T00:15:37;100836.09;;;5.62;74.18
84853;BME280;75109;47.440;19.310;2023-12-28T00:16:09;100833.34;;;5.62;74.51
84853;BME280;75109;47.440;19.310;2023-12-28T00:16:41;100833.63;;;5.60;74.38
84853;BME280;75109;47.440;19.310;2023-12-28T00:17:14;100832.53;;;5.61;74.08
84853;BME280;75109;47.440;19.310;2023-12-28T00:17:47;100836.72;;;5.59;74.19
84853;BME280;75109;47.440;19.310;2023-12-28T00:18:19;100834.25;;;5.57;74.54
84853;BME280;75109;47.440;19.310;2023-12-28T00:18:53;100839.78;;;5.57;74.42
84853;BME280;75109;47.440;19.310;2023-12-28T00:19:27;100842.81;;;5.56;74.58
84853;BME280;75109;47.440;19.310;2023-12-28T00:20:00;100840.03;;;5.56;74.62
84853;BME280;75109;47.440;19.310;2023-12-28T00:20:32;100842.28;;;5.53;74.55
84853;BME280;75109;47.440;19.310;2023-12-28T00:21:04;100840.09;;;5.50;74.80
84853;BME280;75109;47.440;19.310;2023-12-28T00:21:37;100838.16;;;5.51;74.72
84853;BME280;75109;47.440;19.310;2023-12-28T00:22:09;100837.03;;;5.52;74.78
84853;BME280;75109;47.440;19.310;2023-12-28T00:22:42;100840.34;;;5.54;74.43
84853;BME280;75109;47.440;19.310;2023-12-28T00:23:14;100847.81;;;5.53;74.67
84853;BME280;75109;47.440;19.310;2023-12-28T00:23:46;100844.00;;;5.49;74.70
84853;BME280;75109;47.440;19.310;2023-12-28T00:24:20;100848.69;;;5.49;74.87
84853;BME280;75109;47.440;19.310;2023-12-28T00:24:53;100840.16;;;5.45;74.75
84853;BME280;75109;47.440;19.310;2023-12-28T00:25:26;100845.16;;;5.43;74.90
84853;BME280;75109;47.440;19.310;2023-12-28T00:25:58;100844.84;;;5.45;75.12
84853;BME280;75109;47.440;19.310;2023-12-28T00:26:30;100845.97;;;5.44;75.05
84853;BME280;75109;47.440;19.310;2023-12-28T00:27:03;100847.09;;;5.43;75.12
84853;BME280;75109;47.440;19.310;2023-12-28T00:27:35;100841.84;;;5.41;74.96
84853;BME280;75109;47.440;19.310;2023-12-28T00:28:09;100852.94;;;5.41;74.96
84853;BME280;75109;47.440;19.310;2023-12-28T00:28:42;100840.19;;;5.40;74.91
84853;BME280;75109;47.440;19.310;2023-12-28T00:29:14;100857.91;;;5.39;74.95
84853;BME280;75109;47.440;19.310;2023-12-28T00:29:47;100847.94;;;5.38;75.02
84853;BME280;75109;47.440;19.310;2023-12-28T00:30:19;100851.00;;;5.37;75.20
84853;BME280;75109;47.440;19.310;2023-12-28T00:30:51;100845.47;;;5.37;75.14
84853;BME280;75109;47.440;19.310;2023-12-28T00:31:23;100854.63;;;5.37;75.34
84853;BME280;75109;47.440;19.310;2023-12-28T00:31:56;100857.69;;;5.36;75.30
84853;BME280;75109;47.440;19.310;2023-12-28T00:32:28;100856.84;;;5.35;75.17
84853;BME280;75109;47.440;19.310;2023-12-28T00:33:00;100856.25;;;5.38;75.12
84853;BME280;75109;47.440;19.310;2023-12-28T00:33:33;100861.53;;;5.35;74.96
84853;BME280;75109;47.440;19.310;2023-12-28T00:34:05;100863.47;;;5.34;75.28
84853;BME280;75109;47.440;19.310;2023-12-28T00:34:39;100859.63;;;5.30;75.24
84853;BME280;75109;47.440;19.310;2023-12-28T00:35:11;100860.16;;;5.32;75.20
84853;BME280;75109;47.440;19.310;2023-12-28T00:35:43;100865.69;;;5.32;75.06
84853;BME280;75109;47.440;19.310;2023-12-28T00:36:16;100855.22;;;5.29;75.50
84853;BME280;75109;47.440;19.310;2023-12-28T00:36:48;100868.22;;;5.29;75.64
84853;BME280;75109;47.440;19.310;2023-12-28T00:37:20;100860.53;;;5.26;75.77
84853;BME280;75109;47.440;19.310;2023-12-28T00:37:53;100864.38;;;5.25;75.60
84853;BME280;75109;47.440;19.310;2023-12-28T00:38:25;100874.66;;;5.24;75.54
84853;BME280;75109;47.440;19.310;2023-12-28T00:38:57;100869.69;;;5.21;75.63
84853;BME280;75109;47.440;19.310;2023-12-28T00:39:29;100871.34;;;5.22;75.61
84853;BME280;75109;47.440;19.310;2023-12-28T00:40:02;100869.38;;;5.23;75.63
84853;BME280;75109;47.440;19.310;2023-12-28T00:40:35;100869.69;;;5.21;75.60
84853;BME280;75109;47.440;19.310;2023-12-28T00:41:07;100866.63;;;5.23;75.72
84853;BME280;75109;47.440;19.310;2023-12-28T00:41:39;100861.38;;;5.21;75.52
84853;BME280;75109;47.440;19.310;2023-12-28T00:42:12;100859.75;;;5.20;75.61
84853;BME280;75109;47.440;19.310;2023-12-28T00:42:44;100864.38;;;5.25;75.63
84853;BME280;75109;47.440;19.310;2023-12-28T00:43:17;100864.69;;;5.23;75.51
84853;BME280;75109;47.440;19.310;2023-12-28T00:43:49;100869.97;;;5.20;75.63
84853;BME280;75109;47.440;19.310;2023-12-28T00:44:21;100857.78;;;5.21;75.52
84853;BME280;75109;47.440;19.310;2023-12-28T00:44:54;100864.16;;;5.21;75.60
84853;BME280;75109;47.440;19.310;2023-12-28T00:45:26;100858.91;;;5.20;75.60
84853;BME280;75109;47.440;19.310;2023-12-28T00:45:58;100860.53;;;5.21;75.56
84853;BME280;75109;47.440;19.310;2023-12-28T00:46:30;100865.81;;;5.22;75.77
84853;BME280;75109;47.440;19.310;2023-12-28T00:47:02;100857.84;;;5.16;75.92
84853;BME280;75109;47.440;19.310;2023-12-28T00:47:35;100858.38;;;5.18;75.75
84853;BME280;75109;47.440;19.310;2023-12-28T00:48:07;100860.53;;;5.21;75.54
84853;BME280;75109;47.440;19.310;2023-12-28T00:48:40;100860.00;;;5.24;75.58
84853;BME280;75109;47.440;19.310;2023-12-28T00:49:12;100861.91;;;5.23;75.49
84853;BME280;75109;47.440;19.310;2023-12-28T00:49:45;100858.06;;;5.24;75.35
84853;BME280;75109;47.440;19.310;2023-12-28T00:50:18;100863.84;;;5.23;75.47
84853;BME280;75109;47.440;19.310;2023-12-28T00:50:50;100859.44;;;5.22;75.54
84853;BME280;75109;47.440;19.310;2023-12-28T00:51:22;100864.38;;;5.25;75.30
84853;BME280;75109;47.440;19.310;2023-12-28T00:51:55;100863.00;;;5.27;75.05
84853;BME280;75109;47.440;19.310;2023-12-28T00:52:27;100863.00;;;5.27;75.50
84853;BME280;75109;47.440;19.310;2023-12-28T00:53:00;100861.34;;;5.26;75.37
84853;BME280;75109;47.440;19.310;2023-12-28T00:53:32;100863.81;;;5.28;75.28
84853;BME280;75109;47.440;19.310;2023-12-28T00:54:04;100852.53;;;5.24;75.35
84853;BME280;75109;47.440;19.310;2023-12-28T00:54:37;100861.09;;;5.23;75.25
84853;BME280;75109;47.440;19.310;2023-12-28T00:55:10;100858.06;;;5.19;75.51
84853;BME280;75109;47.440;19.310;2023-12-28T00:55:42;100848.16;;;5.18;75.39
84853;BME280;75109;47.440;19.310;2023-12-28T00:56:15;100850.91;;;5.18;75.67
84853;BME280;75109;47.440;19.310;2023-12-28T00:56:47;100852.53;;;5.19;75.48
84853;BME280;75109;47.440;19.310;2023-12-28T00:57:19;100849.47;;;5.21;75.34
84853;BME280;75109;47.440;19.310;2023-12-28T00:57:51;100849.47;;;5.26;75.61
84853;BME280;75109;47.440;19.310;2023-12-28T00:58:23;100839.22;;;5.26;75.28
84853;BME280;75109;47.440;19.310;2023-12-28T00:58:55;100851.09;;;5.27;75.46
84853;BME280;75109;47.440;19.310;2023-12-28T00:59:27;100840.88;;;5.27;75.38
84853;BME280;75109;47.440;19.310;2023-12-28T01:00:00;100852.22;;;5.26;75.36
84853;BME280;75109;47.440;19.310;2023-12-28T01:00:32;100840.63;;;5.24;75.48
84853;BME280;75109;47.440;19.310;2023-12-28T01:01:04;100847.00;;;5.24;75.40
84853;BME280;75109;47.440;19.310;2023-12-28T01:01:37;100851.69;;;5.24;75.14
84853;BME280;75109;47.440;19.310;2023-12-28T01:02:09;100847.00;;;5.24;75.33
84853;BME280;75109;47.440;19.310;2023-12-28T01:02:41;100847.00;;;5.24;75.23
84853;BME280;75109;47.440;19.310;2023-12-28T01:03:13;100845.28;;;5.28;75.36
84853;BME280;75109;47.440;19.310;2023-12-28T01:03:46;100846.41;;;5.27;75.15
84853;BME280;75109;47.440;19.310;2023-12-28T01:04:18;100850.00;;;5.28;75.06
84853;BME280;75109;47.440;19.310;2023-12-28T01:04:52;100855.00;;;5.26;75.14
84853;BME280;75109;47.440;19.310;2023-12-28T01:05:38;100851.63;;;5.29;75.20
84853;BME280;75109;47.440;19.310;2023-12-28T01:36:03;100854.34;;;5.00;75.51
84853;BME280;75109;47.440;19.310;2023-12-28T01:36:45;100856.28;;;5.00;75.82
84853;BME280;75109;47.440;19.310;2023-12-28T01:37:17;100846.34;;;4.99;75.65
84853;BME280;75109;47.440;19.310;2023-12-28T01:37:50;100850.22;;;4.98;75.61
84853;BME280;75109;47.440;19.310;2023-12-28T01:38:22;100848.28;;;4.98;75.79
84853;BME280;75109;47.440;19.310;2023-12-28T01:38:55;100845.22;;;5.00;76.00
84853;BME280;75109;47.440;19.310;2023-12-28T01:39:28;100846.06;;;5.00;75.71
84853;BME280;75109;47.440;19.310;2023-12-28T01:40:00;100840.00;;;4.98;75.75
84853;BME280;75109;47.440;19.310;2023-12-28T01:40:34;100842.75;;;4.98;75.79
84853;BME280;75109;47.440;19.310;2023-12-28T01:41:07;100848.28;;;4.98;75.80
84853;BME280;75109;47.440;19.310;2023-12-28T01:41:39;100836.44;;;4.93;75.69
84853;BME280;75109;47.440;19.310;2023-12-28T01:42:11;100841.97;;;4.93;75.89
84853;BME280;75109;47.440;19.310;2023-12-28T01:42:45;100841.44;;;4.91;75.87
84853;BME280;75109;47.440;19.310;2023-12-28T01:43:17;100831.47;;;4.90;76.00
84853;BME280;75109;47.440;19.310;2023-12-28T01:43:50;100836.19;;;4.89;76.04
84853;BME280;75109;47.440;19.310;2023-12-28T01:44:22;100841.19;;;4.87;75.96
84853;BME280;75109;47.440;19.310;2023-12-28T01:44:54;100841.44;;;4.91;75.87
84853;BME280;75109;47.440;19.310;2023-12-28T01:45:26;100847.50;;;4.93;75.82
84853;BME280;75109;47.440;19.310;2023-12-28T01:45:59;100841.97;;;4.93;75.79
84853;BME280;75109;47.440;19.310;2023-12-28T01:46:32;100838.91;;;4.94;75.70
84853;BME280;75109;47.440;19.310;2023-12-28T01:47:05;100842.81;;;4.93;75.83
84853;BME280;75109;47.440;19.310;2023-12-28T01:47:38;100843.91;;;4.92;75.68
84853;BME280;75109;47.440;19.310;2023-12-28T01:48:10;100836.75;;;4.91;75.90
84853;BME280;75109;47.440;19.310;2023-12-28T01:48:46;100842.53;;;4.90;76.26
84853;BME280;75109;47.440;19.310;2023-12-28T01:49:20;100848.91;;;4.90;75.86
84853;BME280;75109;47.440;19.310;2023-12-28T01:49:53;100841.44;;;4.91;76.05
84853;BME280;75109;47.440;19.310;2023-12-28T01:50:26;100840.91;;;4.89;76.26
84853;BME280;75109;47.440;19.310;2023-12-28T01:51:00;100841.19;;;4.87;76.24
84853;BME280;75109;47.440;19.310;2023-12-28T01:51:33;100842.81;;;4.88;76.32
84853;BME280;75109;47.440;19.310;2023-12-28T01:52:06;100833.44;;;4.89;76.21
84853;BME280;75109;47.440;19.310;2023-12-28T01:52:40;100833.72;;;4.88;75.86
84853;BME280;75109;47.440;19.310;2023-12-28T01:53:14;100838.72;;;4.86;76.21
84853;BME280;75109;47.440;19.310;2023-12-28T01:53:48;100833.75;;;4.83;76.20
84853;BME280;75109;47.440;19.310;2023-12-28T01:54:22;100830.50;;;4.76;76.19
84853;BME280;75109;47.440;19.310;2023-12-28T01:54:55;100831.03;;;4.78;76.32
84853;BME280;75109;47.440;19.310;2023-12-28T01:55:27;100829.06;;;4.78;76.40
84853;BME280;75109;47.440;19.310;2023-12-28T01:56:01;100826.59;;;4.77;76.28
84853;BME280;75109;47.440;19.310;2023-12-28T01:56:34;100826.06;;;4.75;76.28
84853;BME280;75109;47.440;19.310;2023-12-28T01:57:07;100826.06;;;4.75;76.43
84853;BME280;75109;47.440;19.310;2023-12-28T01:57:40;100825.25;;;4.74;76.50
84853;BME280;75109;47.440;19.310;2023-12-28T01:58:13;100821.38;;;4.75;76.47
84853;BME280;75109;47.440;19.310;2023-12-28T01:58:46;100828.28;;;4.78;76.14
84853;BME280;75109;47.440;19.310;2023-12-28T01:59:21;100829.59;;;4.80;76.25
84853;BME280;75109;47.440;19.310;2023-12-28T01:59:54;100821.63;;;4.79;76.24
84853;BME280;75109;47.440;19.310;2023-12-28T02:00:27;100823.53;;;4.78;76.21
84853;BME280;75109;47.440;19.310;2023-12-28T02:00:59;100820.78;;;4.78;76.32
84853;BME280;75109;47.440;19.310;2023-12-28T02:01:33;100824.09;;;4.80;76.30
84853;BME280;75109;47.440;19.310;2023-12-28T02:02:06;100809.72;;;4.78;76.27
84853;BME280;75109;47.440;19.310;2023-12-28T02:02:39;100818.84;;;4.79;76.14
84853;BME280;75109;47.440;19.310;2023-12-28T02:03:13;100815.25;;;4.78;76.15
84853;BME280;75109;47.440;19.310;2023-12-28T02:03:46;100818.56;;;4.80;76.15
84853;BME280;75109;47.440;19.310;2023-12-28T02:04:19;100814.69;;;4.81;76.23
84853;BME280;75109;47.440;19.310;2023-12-28T02:04:58;100810.25;;;4.80;76.23
84853;BME280;75109;47.440;19.310;2023-12-28T02:05:31;100816.34;;;4.82;76.24
84853;BME280;75109;47.440;19.310;2023-12-28T02:06:06;100811.41;;;4.79;76.44
84853;BME280;75109;47.440;19.310;2023-12-28T02:06:40;100816.09;;;4.79;76.23
84853;BME280;75109;47.440;19.310;2023-12-28T02:07:13;100814.69;;;4.81;76.18
84853;BME280;75109;47.440;19.310;2023-12-28T02:07:46;100811.41;;;4.79;76.10
84853;BME280;75109;47.440;19.310;2023-12-28T02:08:18;100811.41;;;4.79;76.36
84853;BME280;75109;47.440;19.310;2023-12-28T02:08:50;100806.09;;;4.83;76.11
84853;BME280;75109;47.440;19.310;2023-12-28T02:09:22;100807.25;;;4.82;76.19
84853;BME280;75109;47.440;19.310;2023-12-28T02:09:54;100813.31;;;4.84;76.19
84853;BME280;75109;47.440;19.310;2023-12-28T02:10:27;100811.34;;;4.84;76.08
84853;BME280;75109;47.440;19.310;2023-12-28T02:11:00;100808.88;;;4.83;76.06
84853;BME280;75109;47.440;19.310;2023-12-28T02:11:33;100810.81;;;4.82;76.19
84853;BME280;75109;47.440;19.310;2023-12-28T02:12:05;100808.03;;;4.82;75.91
84853;BME280;75109;47.440;19.310;2023-12-28T02:12:38;100803.06;;;4.84;76.04
84853;BME280;75109;47.440;19.310;2023-12-28T02:13:10;100801.66;;;4.87;75.87
84853;BME280;75109;47.440;19.310;2023-12-28T02:13:44;100806.66;;;4.85;75.67
84853;BME280;75109;47.440;19.310;2023-12-28T02:14:16;100805.28;;;4.82;75.61
84853;BME280;75109;47.440;19.310;2023-12-28T02:14:49;100809.66;;;4.88;75.61
84853;BME280;75109;47.440;19.310;2023-12-28T02:15:23;100812.72;;;4.87;75.68
84853;BME280;75109;47.440;19.310;2023-12-28T02:16:00;100806.66;;;4.85;75.56
84853;BME280;75109;47.440;19.310;2023-12-28T02:16:40;100800.81;;;4.86;75.70
84853;BME280;75109;47.440;19.310;2023-12-28T02:17:25;100801.13;;;4.85;75.83
84853;BME280;75109;47.440;19.310;2023-12-28T02:18:05;100799.44;;;4.89;75.63
84853;BME280;75109;47.440;19.310;2023-12-28T02:18:45;100793.91;;;4.89;75.57
84853;BME280;75109;47.440;19.310;2023-12-28T02:19:29;100792.78;;;4.90;75.55
84853;BME280;75109;47.440;19.310;2023-12-28T02:20:06;100791.13;;;4.89;75.74
84853;BME280;75109;47.440;19.310;2023-12-28T02:20:39;100798.31;;;4.90;75.38
84853;BME280;75109;47.440;19.310;2023-12-28T02:21:12;100793.31;;;4.92;75.35
84853;BME280;75109;47.440;19.310;2023-12-28T02:21:47;100797.22;;;4.91;75.33
84853;BME280;75109;47.440;19.310;2023-12-28T02:22:23;100797.22;;;4.91;75.13
84853;BME280;75109;47.440;19.310;2023-12-28T02:22:56;100791.09;;;4.94;75.17
84853;BME280;75109;47.440;19.310;2023-12-28T02:23:28;100793.06;;;4.93;75.18
84853;BME280;75109;47.440;19.310;2023-12-28T02:24:01;100791.38;;;4.92;74.92
84853;BME280;75109;47.440;19.310;2023-12-28T02:25:22;100788.97;;;4.86;75.29
84853;BME280;75109;47.440;19.310;2023-12-28T02:25:54;100784.84;;;4.83;75.35
84853;BME280;75109;47.440;19.310;2023-12-28T02:26:26;100794.50;;;4.86;75.19
84853;BME280;75109;47.440;19.310;2023-12-28T02:26:59;100793.91;;;4.89;74.91
84853;BME280;75109;47.440;19.310;2023-12-28T02:27:31;100798.59;;;4.88;75.08
84853;BME280;75109;47.440;19.310;2023-12-28T02:28:04;100793.06;;;4.88;75.02
84853;BME280;75109;47.440;19.310;2023-12-28T02:28:37;100798.59;;;4.88;75.12
84853;BME280;75109;47.440;19.310;2023-12-28T02:29:10;100798.59;;;4.88;75.04
84853;BME280;75109;47.440;19.310;2023-12-28T02:29:43;100803.84;;;4.90;74.93
84853;BME280;75109;47.440;19.310;2023-12-28T02:30:18;100790.00;;;4.90;75.04
84853;BME280;75109;47.440;19.310;2023-12-28T02:30:51;100805.50;;;4.91;74.70
84853;BME280;75109;47.440;19.310;2023-12-28T02:31:30;100796.13;;;4.87;74.96
84853;BME280;75109;47.440;19.310;2023-12-28T02:32:08;100804.97;;;4.89;75.12
84853;BME280;75109;47.440;19.310;2023-12-28T02:32:53;100807.19;;;4.87;75.05
84853;BME280;75109;47.440;19.310;2023-12-28T02:33:33;100806.09;;;4.88;74.97
84853;BME280;75109;47.440;19.310;2023-12-28T02:34:12;100805.28;;;4.82;74.94
84853;BME280;75109;47.440;19.310;2023-12-28T02:34:53;100802.28;;;4.79;75.17
84853;BME280;75109;47.440;19.310;2023-12-28T02:35:30;100798.13;;;4.81;75.18
84853;BME280;75109;47.440;19.310;2023-12-28T02:36:08;100805.88;;;4.79;75.55
84853;BME280;75109;47.440;19.310;2023-12-28T02:36:44;100802.28;;;4.79;75.60
84853;BME280;75109;47.440;19.310;2023-12-28T02:37:18;100797.88;;;4.78;75.57
84853;BME280;75109;47.440;19.310;2023-12-28T02:37:52;100800.94;;;4.76;75.54
84853;BME280;75109;47.440;19.310;2023-12-28T02:38:29;100801.19;;;4.75;75.56
84853;BME280;75109;47.440;19.310;2023-12-28T02:39:03;100796.78;;;4.74;75.64
84853;BME280;75109;47.440;19.310;2023-12-28T02:39:39;100795.13;;;4.73;75.58
84853;BME280;75109;47.440;19.310;2023-12-28T02:40:15;100788.50;;;4.69;75.84
84853;BME280;75109;47.440;19.310;2023-12-28T02:40:50;100791.28;;;4.69;75.80
84853;BME280;75109;47.440;19.310;2023-12-28T02:41:24;100798.22;;;4.66;75.75
84853;BME280;75109;47.440;19.310;2023-12-28T02:41:57;100786.63;;;4.64;75.71
84853;BME280;75109;47.440;19.310;2023-12-28T02:42:30;100789.09;;;4.66;75.41
84853;BME280;75109;47.440;19.310;2023-12-28T02:43:02;100792.97;;;4.65;75.21
84853;BME280;75109;47.440;19.310;2023-12-28T02:43:35;100795.22;;;4.63;75.20
84853;BME280;75109;47.440;19.310;2023-12-28T02:44:07;100785.25;;;4.62;75.31
84853;BME280;75109;47.440;19.310;2023-12-28T02:44:40;100781.66;;;4.61;75.37
84853;BME280;75109;47.440;19.310;2023-12-28T02:45:12;100785.25;;;4.62;75.27
84853;BME280;75109;47.440;19.310;2023-12-28T02:45:44;100786.38;;;4.61;75.18
84853;BME280;75109;47.440;19.310;2023-12-28T02:46:16;100781.91;;;4.65;75.31
84853;BME280;75109;47.440;19.310;2023-12-28T02:46:48;100778.88;;;4.66;75.02
84853;BME280;75109;47.440;19.310;2023-12-28T02:47:21;100788.56;;;4.64;74.96
84853;BME280;75109;47.440;19.310;2023-12-28T02:47:53;100786.34;;;4.66;74.84
84853;BME280;75109;47.440;19.310;2023-12-28T02:48:26;100788.03;;;4.62;74.92
84853;BME280;75109;47.440;19.310;2023-12-28T02:48:58;100775.03;;;4.62;75.00
84853;BME280;75109;47.440;19.310;2023-12-28T02:49:31;100781.34;;;4.68;74.87
84853;BME280;75109;47.440;19.310;2023-12-28T02:50:04;100783.03;;;4.64;74.83
84853;BME280;75109;47.440;19.310;2023-12-28T02:50:37;100777.75;;;4.67;74.64
84853;BME280;75109;47.440;19.310;2023-12-28T02:51:09;100783.00;;;4.69;74.63
84853;BME280;75109;47.440;19.310;2023-12-28T02:51:41;100775.00;;;4.67;74.59
84853;BME280;75109;47.440;19.310;2023-12-28T02:52:16;100773.63;;;4.65;74.46
84853;BME280;75109;47.440;19.310;2023-12-28T02:52:48;100779.44;;;4.68;74.66
84853;BME280;75109;47.440;19.310;2023-12-28T02:53:21;100776.66;;;4.68;74.69
84853;BME280;75109;47.440;19.310;2023-12-28T02:53:53;100773.06;;;4.68;74.71
84853;BME280;75109;47.440;19.310;2023-12-28T02:54:25;100761.19;;;4.67;74.82
84853;BME280;75109;47.440;19.310;2023-12-28T02:54:57;100775.53;;;4.69;74.40
84853;BME280;75109;47.440;19.310;2023-12-28T02:55:30;100768.09;;;4.70;74.33
84853;BME280;75109;47.440;19.310;2023-12-28T02:56:04;100763.94;;;4.67;74.51
84853;BME280;75109;47.440;19.310;2023-12-28T02:56:39;100767.78;;;4.71;74.13
84853;BME280;75109;47.440;19.310;2023-12-28T02:57:12;100759.19;;;4.73;74.00
84853;BME280;75109;47.440;19.310;2023-12-28T02:57:44;100762.50;;;4.75;74.15
84853;BME280;75109;47.440;19.310;2023-12-28T02:58:16;100760.88;;;4.74;74.21
84853;BME280;75109;47.440;19.310;2023-12-28T02:58:48;100759.19;;;4.73;74.00
84853;BME280;75109;47.440;19.310;2023-12-28T02:59:21;100758.63;;;4.76;74.01
84853;BME280;75109;47.440;19.310;2023-12-28T02:59:53;100768.88;;;4.75;73.82
84853;BME280;75109;47.440;19.310;2023-12-28T03:00:26;100762.25;;;4.76;73.70
84853;BME280;75109;47.440;19.310;2023-12-28T03:00:59;100768.00;;;4.80;73.77
84853;BME280;75109;47.440;19.310;2023-12-28T03:01:31;100763.28;;;4.80;73.78
84853;BME280;75109;47.440;19.310;2023-12-28T03:02:03;100766.59;;;4.82;73.56
84853;BME280;75109;47.440;19.310;2023-12-28T03:02:36;100758.81;;;4.84;73.32
84853;BME280;75109;47.440;19.310;2023-12-28T03:03:09;100765.78;;;4.82;73.67
84853;BME280;75109;47.440;19.310;2023-12-28T03:03:42;100769.34;;;4.82;73.70
84853;BME280;75109;47.440;19.310;2023-12-28T03:04:14;100768.53;;;4.82;73.75
84853;BME280;75109;47.440;19.310;2023-12-28T03:04:47;100758.28;;;4.82;73.45
84853;BME280;75109;47.440;19.310;2023-12-28T03:05:19;100768.78;;;4.85;73.60
84853;BME280;75109;47.440;19.310;2023-12-28T03:05:52;100764.09;;;4.86;73.45
84853;BME280;75109;47.440;19.310;2023-12-28T03:06:24;100769.31;;;4.87;73.54
84853;BME280;75109;47.440;19.310;2023-12-28T03:06:57;100765.19;;;4.85;73.28
84853;BME280;75109;47.440;19.310;2023-12-28T03:07:29;100763.75;;;4.92;73.15
84853;BME280;75109;47.440;19.310;2023-12-28T03:08:01;100764.03;;;4.91;73.26
84853;BME280;75109;47.440;19.310;2023-12-28T03:08:34;100762.38;;;4.90;73.29
84853;BME280;75109;47.440;19.310;2023-12-28T03:09:06;100764.03;;;4.91;73.24
84853;BME280;75109;47.440;19.310;2023-12-28T03:09:38;100758.22;;;4.92;73.03
84853;BME280;75109;47.440;19.310;2023-12-28T03:10:11;100764.81;;;4.96;72.59
84853;BME280;75109;47.440;19.310;2023-12-28T03:10:45;100760.34;;;5.00;72.38
84853;BME280;75109;47.440;19.310;2023-12-28T03:11:19;100757.59;;;5.00;72.57
84853;BME280;75109;47.440;19.310;2023-12-28T03:11:52;100764.78;;;5.01;72.39
84853;BME280;75109;47.440;19.310;2023-12-28T03:12:24;100766.19;;;4.99;72.40
84853;BME280;75109;47.440;19.310;2023-12-28T03:12:57;100758.72;;;4.99;72.63
84853;BME280;75109;47.440;19.310;2023-12-28T03:13:30;100764.25;;;4.99;72.66
84853;BME280;75109;47.440;19.310;2023-12-28T03:14:04;100766.72;;;5.01;72.67
84853;BME280;75109;47.440;19.310;2023-12-28T03:14:36;100767.56;;;5.01;72.92
84853;BME280;75109;47.440;19.310;2023-12-28T03:15:09;100768.06;;;5.03;72.99
84853;BME280;75109;47.440;19.310;2023-12-28T03:15:41;100763.66;;;5.02;73.06
84853;BME280;75109;47.440;19.310;2023-12-28T03:16:13;100763.97;;;5.01;73.15
84853;BME280;75109;47.440;19.310;2023-12-28T03:16:45;100769.19;;;5.02;73.03
84853;BME280;75109;47.440;19.310;2023-12-28T03:17:18;100774.72;;;5.02;73.25
84853;BME280;75109;47.440;19.310;2023-12-28T03:17:50;100765.34;;;4.98;73.17
84853;BME280;75109;47.440;19.310;2023-12-28T03:18:22;100764.28;;;4.94;73.77
84853;BME280;75109;47.440;19.310;2023-12-28T03:18:55;100762.91;;;4.92;73.37
84853;BME280;75109;47.440;19.310;2023-12-28T03:19:27;100755.75;;;4.91;73.04
84853;BME280;75109;47.440;19.310;2023-12-28T03:20:00;100760.13;;;4.92;73.51
84853;BME280;75109;47.440;19.310;2023-12-28T03:20:32;100759.34;;;4.91;73.67
84853;BME280;75109;47.440;19.310;2023-12-28T03:21:05;100759.59;;;4.90;73.47
84853;BME280;75109;47.440;19.310;2023-12-28T03:21:38;100756.03;;;4.89;73.54
84853;BME280;75109;47.440;19.310;2023-12-28T03:22:11;100756.03;;;4.89;73.67
84853;BME280;75109;47.440;19.310;2023-12-28T03:22:43;100758.28;;;4.87;73.27
84853;BME280;75109;47.440;19.310;2023-12-28T03:23:16;100751.91;;;4.87;73.22
84853;BME280;75109;47.440;19.310;2023-12-28T03:23:48;100753.84;;;4.86;73.22
84853;BME280;75109;47.440;19.310;2023-12-28T03:24:20;100754.13;;;4.85;73.17